ケアンズ の空港の天気 - METARとTAF

ケアンズ国際空港 ( YBCS / CNS ) - オーストラリア クイーンズランド州ケアンズ
飛行場実況気象(Metar)
観測時間06/18 17:30 AEST (06/18 07:30 UTC)
風向・風速南東 7m/s
視程10km以上
天気現象
なし
気温22℃
湿度43%
気圧1017hPa
METARYBCS 180730Z 13014KT CAVOK 22/09 Q1017 NOSIG
過去の天気等 Google飛行場航空写真 Wunderground天気予報

過去48時間のMETAR

飛行場予報(TAF)
発表時間: 6/18 15:37 AEST (6/18 05:37 UTC)
予報対象時間: 18日16時 AEST ~ 19日16時 AEST
風向・風速南東 6m/s
視程10km以上
なし
TAF YBCS 180537Z 1806/1906 14012KT CAVOK